sensor_id;sensor_type;location;lat;lon;timestamp;pressure;altitude;pressure_sealevel;temperature;humidity
32875;BME280;40468;42.128;24.750;2024-01-15T00:01:29;99336.31;;;-0.92;69.53
32875;BME280;40468;42.128;24.750;2024-01-15T00:03:00;99341.44;;;-0.90;69.58
32875;BME280;40468;42.128;24.750;2024-01-15T00:04:36;99345.69;;;-0.91;69.43
32875;BME280;40468;42.128;24.750;2024-01-15T00:06:07;99336.34;;;-0.94;69.66
32875;BME280;40468;42.128;24.750;2024-01-15T00:07:39;99337.22;;;-0.95;69.71
32875;BME280;40468;42.128;24.750;2024-01-15T00:09:10;99332.94;;;-0.94;69.82
32875;BME280;40468;42.128;24.750;2024-01-15T00:10:43;99335.50;;;-0.94;69.89
32875;BME280;40468;42.128;24.750;2024-01-15T00:12:14;99325.28;;;-0.94;69.91
32875;BME280;40468;42.128;24.750;2024-01-15T00:13:45;99327.00;;;-0.95;69.88
32875;BME280;40468;42.128;24.750;2024-01-15T00:15:16;99322.72;;;-0.96;69.77
32875;BME280;40468;42.128;24.750;2024-01-15T00:16:48;99309.16;;;-1.07;69.98
32875;BME280;40468;42.128;24.750;2024-01-15T00:18:20;99327.00;;;-1.01;70.18
32875;BME280;40468;42.128;24.750;2024-01-15T00:19:52;99334.66;;;-1.01;70.21
32875;BME280;40468;42.128;24.750;2024-01-15T00:21:23;99332.97;;;-1.00;70.15
32875;BME280;40468;42.128;24.750;2024-01-15T00:22:55;99326.16;;;-1.00;70.25
32875;BME280;40468;42.128;24.750;2024-01-15T00:24:27;99331.25;;;-0.98;70.47
32875;BME280;40468;42.128;24.750;2024-01-15T00:25:59;99181.91;;;-1.88;70.40
32875;BME280;40468;42.128;24.750;2024-01-15T00:27:31;99324.50;;;-1.10;70.54
32875;BME280;40468;42.128;24.750;2024-01-15T00:29:02;99327.03;;;-1.07;70.56
32875;BME280;40468;42.128;24.750;2024-01-15T00:30:33;99324.47;;;-1.05;70.52
32875;BME280;40468;42.128;24.750;2024-01-15T00:32:05;99330.44;;;-1.03;70.53
32875;BME280;40468;42.128;24.750;2024-01-15T00:33:36;99329.56;;;-1.02;70.56
32875;BME280;40468;42.128;24.750;2024-01-15T00:35:08;99330.44;;;-1.00;70.49
32875;BME280;40468;42.128;24.750;2024-01-15T00:36:39;99330.44;;;-1.00;70.54
32875;BME280;40468;42.128;24.750;2024-01-15T00:38:11;99326.16;;;-1.00;70.40
32875;BME280;40468;42.128;24.750;2024-01-15T00:39:42;99316.78;;;-0.99;70.45
32875;BME280;40468;42.128;24.750;2024-01-15T00:41:15;99203.09;;;-1.71;70.29
32875;BME280;40468;42.128;24.750;2024-01-15T00:42:46;99315.97;;;-1.03;70.40
32875;BME280;40468;42.128;24.750;2024-01-15T00:44:17;99312.53;;;-1.02;70.34
32875;BME280;40468;42.128;24.750;2024-01-15T00:45:49;99322.75;;;-1.02;70.27
32875;BME280;40468;42.128;24.750;2024-01-15T00:47:20;99310.88;;;-1.06;70.19
32875;BME280;40468;42.128;24.750;2024-01-15T00:48:51;99312.56;;;-1.05;70.53
32875;BME280;40468;42.128;24.750;2024-01-15T00:50:23;99316.81;;;-1.05;70.55
32875;BME280;40468;42.128;24.750;2024-01-15T00:51:54;99313.41;;;-1.07;70.46
32875;BME280;40468;42.128;24.750;2024-01-15T00:53:25;99305.78;;;-1.12;70.66
32875;BME280;40468;42.128;24.750;2024-01-15T00:54:56;99283.69;;;-1.22;70.67
32875;BME280;40468;42.128;24.750;2024-01-15T00:56:29;99298.94;;;-1.10;70.49
32875;BME280;40468;42.128;24.750;2024-01-15T00:58:00;99308.31;;;-1.09;70.62
32875;BME280;40468;42.128;24.750;2024-01-15T00:59:32;99302.38;;;-1.14;70.66
32875;BME280;40468;42.128;24.750;2024-01-15T01:01:03;99308.34;;;-1.12;70.69
32875;BME280;40468;42.128;24.750;2024-01-15T01:02:35;99306.66;;;-1.15;70.73
32875;BME280;40468;42.128;24.750;2024-01-15T01:04:06;99305.81;;;-1.15;70.95
32875;BME280;40468;42.128;24.750;2024-01-15T01:05:37;99310.03;;;-1.16;70.99
32875;BME280;40468;42.128;24.750;2024-01-15T01:07:08;99311.75;;;-1.16;71.01
32875;BME280;40468;42.128;24.750;2024-01-15T01:08:40;99305.81;;;-1.17;71.22
32875;BME280;40468;42.128;24.750;2024-01-15T01:10:11;99306.66;;;-1.18;71.20
32875;BME280;40468;42.128;24.750;2024-01-15T01:11:44;99298.16;;;-1.18;71.19
32875;BME280;40468;42.128;24.750;2024-01-15T01:13:15;99298.16;;;-1.20;71.01
32875;BME280;40468;42.128;24.750;2024-01-15T01:14:46;99297.28;;;-1.17;71.22
32875;BME280;40468;42.128;24.750;2024-01-15T01:16:17;99180.16;;;-1.81;71.12
32875;BME280;40468;42.128;24.750;2024-01-15T01:17:49;99288.75;;;-1.16;71.17
32875;BME280;40468;42.128;24.750;2024-01-15T01:19:21;99291.31;;;-1.16;71.17
32875;BME280;40468;42.128;24.750;2024-01-15T01:20:51;99288.81;;;-1.21;71.28
32875;BME280;40468;42.128;24.750;2024-01-15T01:22:23;99297.28;;;-1.19;71.34
32875;BME280;40468;42.128;24.750;2024-01-15T01:23:54;99302.41;;;-1.19;71.38
32875;BME280;40468;42.128;24.750;2024-01-15T01:25:26;99282.00;;;-1.23;71.54
32875;BME280;40468;42.128;24.750;2024-01-15T01:26:58;99295.59;;;-1.20;71.42
32875;BME280;40468;42.128;24.750;2024-01-15T01:28:30;99297.34;;;-1.23;71.47
32875;BME280;40468;42.128;24.750;2024-01-15T01:30:01;99288.00;;;-1.32;71.47
32875;BME280;40468;42.128;24.750;2024-01-15T01:31:33;99295.63;;;-1.27;71.49
32875;BME280;40468;42.128;24.750;2024-01-15T01:33:05;99299.03;;;-1.25;71.61
32875;BME280;40468;42.128;24.750;2024-01-15T01:34:40;99297.31;;;-1.25;71.55
32875;BME280;40468;42.128;24.750;2024-01-15T01:36:12;99295.63;;;-1.26;71.56
32875;BME280;40468;42.128;24.750;2024-01-15T01:37:44;99294.78;;;-1.25;71.58
32875;BME280;40468;42.128;24.750;2024-01-15T01:39:15;99294.78;;;-1.26;71.55
32875;BME280;40468;42.128;24.750;2024-01-15T01:40:47;99287.13;;;-1.26;71.59
32875;BME280;40468;42.128;24.750;2024-01-15T01:42:19;99296.50;;;-1.27;71.52
32875;BME280;40468;42.128;24.750;2024-01-15T01:43:51;99296.53;;;-1.30;71.72
32875;BME280;40468;42.128;24.750;2024-01-15T01:45:22;99300.78;;;-1.32;71.67
32875;BME280;40468;42.128;24.750;2024-01-15T01:46:53;99296.53;;;-1.33;71.52
32875;BME280;40468;42.128;24.750;2024-01-15T01:48:25;99293.13;;;-1.35;71.46
32875;BME280;40468;42.128;24.750;2024-01-15T01:49:56;99290.59;;;-1.35;71.57
32875;BME280;40468;42.128;24.750;2024-01-15T01:51:27;99293.13;;;-1.35;71.61
32875;BME280;40468;42.128;24.750;2024-01-15T01:52:59;99287.19;;;-1.37;71.65
32875;BME280;40468;42.128;24.750;2024-01-15T01:54:32;99268.47;;;-1.45;71.66
32875;BME280;40468;42.128;24.750;2024-01-15T01:56:05;99282.09;;;-1.39;71.65
32875;BME280;40468;42.128;24.750;2024-01-15T01:57:38;99282.94;;;-1.38;71.65
32875;BME280;40468;42.128;24.750;2024-01-15T01:59:10;99277.06;;;-1.51;71.77
32875;BME280;40468;42.128;24.750;2024-01-15T02:00:41;99258.38;;;-1.62;71.74
32875;BME280;40468;42.128;24.750;2024-01-15T02:02:13;99277.84;;;-1.46;71.59
32875;BME280;40468;42.128;24.750;2024-01-15T02:03:45;99275.31;;;-1.46;71.62
32875;BME280;40468;42.128;24.750;2024-01-15T02:05:18;99272.75;;;-1.46;71.57
32875;BME280;40468;42.128;24.750;2024-01-15T02:06:50;99275.31;;;-1.47;71.51
32875;BME280;40468;42.128;24.750;2024-01-15T02:08:21;99271.94;;;-1.48;71.62
32875;BME280;40468;42.128;24.750;2024-01-15T02:09:53;99277.88;;;-1.47;71.73
32875;BME280;40468;42.128;24.750;2024-01-15T02:11:24;99277.88;;;-1.47;71.55
32875;BME280;40468;42.128;24.750;2024-01-15T02:12:57;99282.16;;;-1.48;71.61
32875;BME280;40468;42.128;24.750;2024-01-15T02:14:28;99282.13;;;-1.49;71.81
32875;BME280;40468;42.128;24.750;2024-01-15T02:16:00;99287.25;;;-1.52;71.90
32875;BME280;40468;42.128;24.750;2024-01-15T02:17:32;99281.31;;;-1.54;71.85
32875;BME280;40468;42.128;24.750;2024-01-15T02:19:03;99278.75;;;-1.53;71.77
32875;BME280;40468;42.128;24.750;2024-01-15T02:20:35;99287.25;;;-1.51;71.94
32875;BME280;40468;42.128;24.750;2024-01-15T02:22:05;99285.56;;;-1.52;72.05
32875;BME280;40468;42.128;24.750;2024-01-15T02:23:39;99278.75;;;-1.50;72.06
32875;BME280;40468;42.128;24.750;2024-01-15T02:25:09;99267.69;;;-1.53;72.13
32875;BME280;40468;42.128;24.750;2024-01-15T02:26:42;99276.19;;;-1.54;72.12
32875;BME280;40468;42.128;24.750;2024-01-15T02:28:14;99277.94;;;-1.56;72.28
32875;BME280;40468;42.128;24.750;2024-01-15T02:29:46;99271.13;;;-1.61;72.29
32875;BME280;40468;42.128;24.750;2024-01-15T02:31:17;99278.78;;;-1.61;72.59
32875;BME280;40468;42.128;24.750;2024-01-15T02:32:49;99277.06;;;-1.58;72.33
32875;BME280;40468;42.128;24.750;2024-01-15T02:34:20;99276.22;;;-1.59;72.47
32875;BME280;40468;42.128;24.750;2024-01-15T02:35:51;99278.78;;;-1.61;72.27
32875;BME280;40468;42.128;24.750;2024-01-15T02:37:22;99285.59;;;-1.59;72.55
32875;BME280;40468;42.128;24.750;2024-01-15T02:38:55;99272.84;;;-1.64;72.63
32875;BME280;40468;42.128;24.750;2024-01-15T02:40:26;99283.06;;;-1.63;72.54
32875;BME280;40468;42.128;24.750;2024-01-15T02:41:58;99254.19;;;-1.78;72.83
32875;BME280;40468;42.128;24.750;2024-01-15T02:43:29;99277.09;;;-1.66;72.69
32875;BME280;40468;42.128;24.750;2024-01-15T02:45:01;99272.84;;;-1.69;72.84
32875;BME280;40468;42.128;24.750;2024-01-15T02:46:31;99281.38;;;-1.73;72.87
32875;BME280;40468;42.128;24.750;2024-01-15T02:48:03;99266.94;;;-1.81;72.91
32875;BME280;40468;42.128;24.750;2024-01-15T02:49:34;99283.94;;;-1.73;73.01
32875;BME280;40468;42.128;24.750;2024-01-15T02:51:06;99277.13;;;-1.72;73.17
32875;BME280;40468;42.128;24.750;2024-01-15T02:52:37;99277.97;;;-1.72;72.93
32875;BME280;40468;42.128;24.750;2024-01-15T02:54:10;99274.56;;;-1.71;73.05
32875;BME280;40468;42.128;24.750;2024-01-15T02:55:41;99269.47;;;-1.71;72.74
32875;BME280;40468;42.128;24.750;2024-01-15T02:57:12;99274.56;;;-1.71;72.76
32875;BME280;40468;42.128;24.750;2024-01-15T02:58:43;99268.63;;;-1.73;72.65
32875;BME280;40468;42.128;24.750;2024-01-15T03:00:15;99267.75;;;-1.72;72.59
32875;BME280;40468;42.128;24.750;2024-01-15T03:01:46;99261.81;;;-1.72;72.42
32875;BME280;40468;42.128;24.750;2024-01-15T03:03:18;99260.13;;;-1.73;72.40
32875;BME280;40468;42.128;24.750;2024-01-15T03:04:49;99261.81;;;-1.72;72.49
32875;BME280;40468;42.128;24.750;2024-01-15T03:06:21;99263.50;;;-1.73;72.50
32875;BME280;40468;42.128;24.750;2024-01-15T03:07:52;99260.97;;;-1.73;72.63
32875;BME280;40468;42.128;24.750;2024-01-15T03:09:24;99262.66;;;-1.72;72.50
32875;BME280;40468;42.128;24.750;2024-01-15T03:10:56;99266.94;;;-1.75;72.46
32875;BME280;40468;42.128;24.750;2024-01-15T03:12:29;99256.75;;;-1.80;72.67
32875;BME280;40468;42.128;24.750;2024-01-15T03:14:00;99257.59;;;-1.81;72.51
32875;BME280;40468;42.128;24.750;2024-01-15T03:15:32;99259.31;;;-1.86;72.72
32875;BME280;40468;42.128;24.750;2024-01-15T03:17:02;99250.84;;;-1.96;72.70
32875;BME280;40468;42.128;24.750;2024-01-15T03:18:34;99263.59;;;-1.96;72.88
32875;BME280;40468;42.128;24.750;2024-01-15T03:20:07;99268.72;;;-2.02;73.12
32875;BME280;40468;42.128;24.750;2024-01-15T03:21:38;99261.94;;;-2.08;73.29
32875;BME280;40468;42.128;24.750;2024-01-15T03:23:09;99260.22;;;-2.07;73.26
32875;BME280;40468;42.128;24.750;2024-01-15T03:24:43;99250.88;;;-2.07;73.17
32875;BME280;40468;42.128;24.750;2024-01-15T03:26:13;99249.19;;;-2.09;73.41
32875;BME280;40468;42.128;24.750;2024-01-15T03:27:45;99251.75;;;-2.12;73.27
32875;BME280;40468;42.128;24.750;2024-01-15T03:29:17;99250.06;;;-2.15;73.44
32875;BME280;40468;42.128;24.750;2024-01-15T03:30:48;99248.38;;;-2.16;73.50
32875;BME280;40468;42.128;24.750;2024-01-15T03:32:20;99245.81;;;-2.16;73.38
32875;BME280;40468;42.128;24.750;2024-01-15T03:33:50;99246.66;;;-2.15;73.32
32875;BME280;40468;42.128;24.750;2024-01-15T03:35:22;99242.41;;;-2.15;73.28
32875;BME280;40468;42.128;24.750;2024-01-15T03:36:53;99238.16;;;-2.17;73.30
32875;BME280;40468;42.128;24.750;2024-01-15T03:38:27;99233.06;;;-2.17;73.26
32875;BME280;40468;42.128;24.750;2024-01-15T03:40:00;99238.16;;;-2.17;73.35
32875;BME280;40468;42.128;24.750;2024-01-15T03:41:33;99239.00;;;-2.20;73.23
32875;BME280;40468;42.128;24.750;2024-01-15T03:43:03;99253.47;;;-2.19;73.32
32875;BME280;40468;42.128;24.750;2024-01-15T03:44:35;99255.16;;;-2.18;73.35
32875;BME280;40468;42.128;24.750;2024-01-15T03:46:07;99258.59;;;-2.19;73.39
32875;BME280;40468;42.128;24.750;2024-01-15T03:47:38;99247.50;;;-2.19;73.33
32875;BME280;40468;42.128;24.750;2024-01-15T03:49:10;99253.47;;;-2.19;73.23
32875;BME280;40468;42.128;24.750;2024-01-15T03:50:42;99260.25;;;-2.22;73.21
32875;BME280;40468;42.128;24.750;2024-01-15T03:52:13;99256.91;;;-2.27;73.31
32875;BME280;40468;42.128;24.750;2024-01-15T03:53:45;99127.03;;;-3.12;73.22
32875;BME280;40468;42.128;24.750;2024-01-15T03:55:17;99263.66;;;-2.25;73.21
32875;BME280;40468;42.128;24.750;2024-01-15T03:56:49;99264.56;;;-2.27;73.18
32875;BME280;40468;42.128;24.750;2024-01-15T03:58:19;99260.28;;;-2.29;73.32
32875;BME280;40468;42.128;24.750;2024-01-15T03:59:51;99249.25;;;-2.32;73.13
32875;BME280;40468;42.128;24.750;2024-01-15T04:01:22;99251.78;;;-2.29;73.23
32875;BME280;40468;42.128;24.750;2024-01-15T04:02:54;99254.34;;;-2.29;73.35
32875;BME280;40468;42.128;24.750;2024-01-15T04:04:24;99251.78;;;-2.29;73.26
32875;BME280;40468;42.128;24.750;2024-01-15T04:05:56;99250.06;;;-2.29;73.33
32875;BME280;40468;42.128;24.750;2024-01-15T04:07:28;99250.09;;;-2.27;73.29
32875;BME280;40468;42.128;24.750;2024-01-15T04:08:59;99250.94;;;-2.26;73.23
32875;BME280;40468;42.128;24.750;2024-01-15T04:10:32;99245.81;;;-2.25;73.16
32875;BME280;40468;42.128;24.750;2024-01-15T04:12:03;99243.25;;;-2.25;73.10
32875;BME280;40468;42.128;24.750;2024-01-15T04:13:35;99248.38;;;-2.25;73.25
32875;BME280;40468;42.128;24.750;2024-01-15T04:15:06;99241.59;;;-2.24;73.22
32875;BME280;40468;42.128;24.750;2024-01-15T04:16:38;99253.47;;;-2.23;73.33
32875;BME280;40468;42.128;24.750;2024-01-15T04:18:09;99256.00;;;-2.22;73.15
32875;BME280;40468;42.128;24.750;2024-01-15T04:19:43;99256.03;;;-2.20;73.16
32875;BME280;40468;42.128;24.750;2024-01-15T04:21:14;99264.53;;;-2.21;73.13
32875;BME280;40468;42.128;24.750;2024-01-15T04:22:46;99261.97;;;-2.20;73.30
32875;BME280;40468;42.128;24.750;2024-01-15T04:24:16;99260.25;;;-2.19;73.22
32875;BME280;40468;42.128;24.750;2024-01-15T04:25:50;99243.25;;;-2.20;73.23
32875;BME280;40468;42.128;24.750;2024-01-15T04:27:22;99236.50;;;-2.27;73.30
32875;BME280;40468;42.128;24.750;2024-01-15T04:28:52;99233.94;;;-2.32;73.46
32875;BME280;40468;42.128;24.750;2024-01-15T04:30:24;99239.91;;;-2.30;73.55
32875;BME280;40468;42.128;24.750;2024-01-15T04:31:55;99233.94;;;-2.31;73.69
32875;BME280;40468;42.128;24.750;2024-01-15T04:33:27;99233.97;;;-2.34;73.52
32875;BME280;40468;42.128;24.750;2024-01-15T04:34:58;99160.94;;;-2.73;73.33
32875;BME280;40468;42.128;24.750;2024-01-15T04:36:30;99228.84;;;-2.32;73.47
32875;BME280;40468;42.128;24.750;2024-01-15T04:38:01;99229.69;;;-2.32;73.37
32875;BME280;40468;42.128;24.750;2024-01-15T04:39:33;99224.59;;;-2.33;73.47
32875;BME280;40468;42.128;24.750;2024-01-15T04:41:05;99228.00;;;-2.36;73.58
32875;BME280;40468;42.128;24.750;2024-01-15T04:42:37;99227.19;;;-2.42;73.48
32875;BME280;40468;42.128;24.750;2024-01-15T04:44:08;99227.16;;;-2.41;73.52
32875;BME280;40468;42.128;24.750;2024-01-15T04:45:40;99225.47;;;-2.43;73.59
32875;BME280;40468;42.128;24.750;2024-01-15T04:47:10;99230.56;;;-2.42;73.57
32875;BME280;40468;42.128;24.750;2024-01-15T04:48:42;99229.72;;;-2.42;73.37
32875;BME280;40468;42.128;24.750;2024-01-15T04:50:13;99229.72;;;-2.42;73.48
32875;BME280;40468;42.128;24.750;2024-01-15T04:51:45;99226.31;;;-2.41;73.49
32875;BME280;40468;42.128;24.750;2024-01-15T04:53:16;99221.22;;;-2.41;73.28
32875;BME280;40468;42.128;24.750;2024-01-15T04:54:48;99206.78;;;-2.45;73.28
32875;BME280;40468;42.128;24.750;2024-01-15T04:56:21;99216.97;;;-2.42;73.25
32875;BME280;40468;42.128;24.750;2024-01-15T04:57:52;99225.47;;;-2.43;73.25
32875;BME280;40468;42.128;24.750;2024-01-15T04:59:24;99228.88;;;-2.44;73.16
32875;BME280;40468;42.128;24.750;2024-01-15T05:00:55;99222.09;;;-2.45;73.26
32875;BME280;40468;42.128;24.750;2024-01-15T05:02:26;99227.16;;;-2.48;73.40
32875;BME280;40468;42.128;24.750;2024-01-15T05:03:58;99220.38;;;-2.49;73.52
32875;BME280;40468;42.128;24.750;2024-01-15T05:05:29;99212.75;;;-2.54;73.62
32875;BME280;40468;42.128;24.750;2024-01-15T05:07:01;99218.69;;;-2.54;73.23
32875;BME280;40468;42.128;24.750;2024-01-15T05:08:32;99190.66;;;-2.64;73.52
32875;BME280;40468;42.128;24.750;2024-01-15T05:10:04;99209.31;;;-2.52;73.27
32875;BME280;40468;42.128;24.750;2024-01-15T05:11:37;99205.94;;;-2.52;73.25
32875;BME280;40468;42.128;24.750;2024-01-15T05:13:08;99198.28;;;-2.54;73.18
32875;BME280;40468;42.128;24.750;2024-01-15T05:14:39;99190.63;;;-2.52;73.18
32875;BME280;40468;42.128;24.750;2024-01-15T05:16:11;99186.38;;;-2.55;73.28
32875;BME280;40468;42.128;24.750;2024-01-15T05:17:42;99194.03;;;-2.52;73.22
32875;BME280;40468;42.128;24.750;2024-01-15T05:19:14;99198.28;;;-2.52;73.20
32875;BME280;40468;42.128;24.750;2024-01-15T05:20:44;99194.03;;;-2.52;73.33
32875;BME280;40468;42.128;24.750;2024-01-15T05:22:16;99190.63;;;-2.50;73.26
32875;BME280;40468;42.128;24.750;2024-01-15T05:23:47;99188.06;;;-2.49;73.38
32875;BME280;40468;42.128;24.750;2024-01-15T05:25:19;99188.06;;;-2.49;73.33
32875;BME280;40468;42.128;24.750;2024-01-15T05:26:51;99177.88;;;-2.52;73.31
32875;BME280;40468;42.128;24.750;2024-01-15T05:28:23;99182.13;;;-2.49;73.26
32875;BME280;40468;42.128;24.750;2024-01-15T05:29:54;99173.63;;;-2.48;73.36
32875;BME280;40468;42.128;24.750;2024-01-15T05:31:25;99178.72;;;-2.47;73.22
32875;BME280;40468;42.128;24.750;2024-01-15T05:32:56;99183.81;;;-2.38;73.38
32875;BME280;40468;42.128;24.750;2024-01-15T05:34:30;99178.69;;;-2.32;73.33
32875;BME280;40468;42.128;24.750;2024-01-15T05:36:01;99176.13;;;-2.30;73.27
32875;BME280;40468;42.128;24.750;2024-01-15T05:37:33;99175.28;;;-2.29;73.25
32875;BME280;40468;42.128;24.750;2024-01-15T05:39:03;99187.16;;;-2.28;73.08
32875;BME280;40468;42.128;24.750;2024-01-15T05:40:36;99182.94;;;-2.27;73.13
32875;BME280;40468;42.128;24.750;2024-01-15T05:42:09;99181.22;;;-2.27;72.99
32875;BME280;40468;42.128;24.750;2024-01-15T05:43:39;99150.69;;;-2.45;72.95
32875;BME280;40468;42.128;24.750;2024-01-15T05:45:11;99185.50;;;-2.31;72.92
32875;BME280;40468;42.128;24.750;2024-01-15T05:46:42;99171.06;;;-2.36;72.90
32875;BME280;40468;42.128;24.750;2024-01-15T05:48:14;99179.53;;;-2.33;73.02
32875;BME280;40468;42.128;24.750;2024-01-15T05:49:45;99177.84;;;-2.37;72.92
32875;BME280;40468;42.128;24.750;2024-01-15T05:51:16;99196.56;;;-2.33;72.94
32875;BME280;40468;42.128;24.750;2024-01-15T05:52:48;99204.19;;;-2.35;73.03
32875;BME280;40468;42.128;24.750;2024-01-15T05:54:20;99205.03;;;-2.37;73.05
32875;BME280;40468;42.128;24.750;2024-01-15T05:55:51;99203.34;;;-2.38;73.28
32875;BME280;40468;42.128;24.750;2024-01-15T05:57:24;99135.47;;;-2.79;73.35
32875;BME280;40468;42.128;24.750;2024-01-15T05:58:55;99207.59;;;-2.40;73.58
32875;BME280;40468;42.128;24.750;2024-01-15T06:00:26;99200.78;;;-2.40;73.70
32875;BME280;40468;42.128;24.750;2024-01-15T06:01:57;99132.06;;;-2.81;73.65
32875;BME280;40468;42.128;24.750;2024-01-15T06:03:30;99207.59;;;-2.40;73.81
32875;BME280;40468;42.128;24.750;2024-01-15T06:05:02;99214.44;;;-2.42;73.68
32875;BME280;40468;42.128;24.750;2024-01-15T06:06:33;99205.94;;;-2.44;73.68
32875;BME280;40468;42.128;24.750;2024-01-15T06:08:18;99193.16;;;-2.46;73.91
32875;BME280;40468;42.128;24.750;2024-01-15T06:09:49;99191.47;;;-2.47;73.81
32875;BME280;40468;42.128;24.750;2024-01-15T06:11:21;99188.06;;;-2.44;73.71
32875;BME280;40468;42.128;24.750;2024-01-15T06:12:53;99181.28;;;-2.42;73.86
32875;BME280;40468;42.128;24.750;2024-01-15T06:14:25;99169.38;;;-2.46;73.81
32875;BME280;40468;42.128;24.750;2024-01-15T06:15:56;99182.94;;;-2.40;73.62
32875;BME280;40468;42.128;24.750;2024-01-15T06:17:28;99187.22;;;-2.39;73.76
32875;BME280;40468;42.128;24.750;2024-01-15T06:18:59;99190.59;;;-2.38;73.86
32875;BME280;40468;42.128;24.750;2024-01-15T06:20:31;99194.84;;;-2.37;73.52
32875;BME280;40468;42.128;24.750;2024-01-15T06:22:03;99197.41;;;-2.36;73.78
32875;BME280;40468;42.128;24.750;2024-01-15T06:23:34;99211.84;;;-2.35;73.73
32875;BME280;40468;42.128;24.750;2024-01-15T06:25:07;99215.25;;;-2.36;73.70
32875;BME280;40468;42.128;24.750;2024-01-15T06:26:39;99210.16;;;-2.40;73.79
32875;BME280;40468;42.128;24.750;2024-01-15T06:28:11;99218.63;;;-2.32;73.96
32875;BME280;40468;42.128;24.750;2024-01-15T06:29:45;99218.66;;;-2.34;73.94
32875;BME280;40468;42.128;24.750;2024-01-15T06:31:16;99221.19;;;-2.27;73.93
32875;BME280;40468;42.128;24.750;2024-01-15T06:32:48;99211.81;;;-2.25;73.66
32875;BME280;40468;42.128;24.750;2024-01-15T06:34:20;99206.72;;;-2.24;73.66
32875;BME280;40468;42.128;24.750;2024-01-15T06:35:52;99212.66;;;-2.17;73.67
32875;BME280;40468;42.128;24.750;2024-01-15T06:37:23;99213.47;;;-2.14;73.55
32875;BME280;40468;42.128;24.750;2024-01-15T06:38:55;99221.97;;;-2.10;73.57
32875;BME280;40468;42.128;24.750;2024-01-15T06:40:26;99224.50;;;-2.07;73.42
32875;BME280;40468;42.128;24.750;2024-01-15T06:41:58;99221.09;;;-2.03;73.43
32875;BME280;40468;42.128;24.750;2024-01-15T06:43:30;99221.94;;;-1.99;73.26
32875;BME280;40468;42.128;24.750;2024-01-15T06:45:02;99214.31;;;-2.09;73.25
32875;BME280;40468;42.128;24.750;2024-01-15T06:46:34;99206.66;;;-2.04;73.25
32875;BME280;40468;42.128;24.750;2024-01-15T06:48:06;99215.16;;;-2.00;73.05
32875;BME280;40468;42.128;24.750;2024-01-15T06:49:37;99214.25;;;-1.96;73.10
32875;BME280;40468;42.128;24.750;2024-01-15T06:51:09;99206.63;;;-1.96;72.87
32875;BME280;40468;42.128;24.750;2024-01-15T06:52:40;99204.91;;;-1.91;72.78
32875;BME280;40468;42.128;24.750;2024-01-15T06:54:12;99203.19;;;-1.89;72.94
32875;BME280;40468;42.128;24.750;2024-01-15T06:55:43;99188.72;;;-1.93;72.75
32875;BME280;40468;42.128;24.750;2024-01-15T06:57:15;99204.00;;;-1.84;72.59
32875;BME280;40468;42.128;24.750;2024-01-15T06:58:47;99200.63;;;-1.83;72.59
32875;BME280;40468;42.128;24.750;2024-01-15T07:00:19;99201.44;;;-1.81;72.67
32875;BME280;40468;42.128;24.750;2024-01-15T07:01:50;99203.13;;;-1.77;72.63
32875;BME280;40468;42.128;24.750;2024-01-15T07:03:22;99198.88;;;-1.79;72.63
32875;BME280;40468;42.128;24.750;2024-01-15T07:04:53;99206.50;;;-1.72;72.56
32875;BME280;40468;42.128;24.750;2024-01-15T07:06:25;99197.97;;;-1.69;72.59
32875;BME280;40468;42.128;24.750;2024-01-15T07:07:56;99195.41;;;-1.66;72.39
32875;BME280;40468;42.128;24.750;2024-01-15T07:09:28;99204.75;;;-1.59;72.31
32875;BME280;40468;42.128;24.750;2024-01-15T07:11:03;99199.63;;;-1.59;72.31
32875;BME280;40468;42.128;24.750;2024-01-15T07:12:33;99207.22;;;-1.51;72.11
32875;BME280;40468;42.128;24.750;2024-01-15T07:14:07;99192.75;;;-1.49;71.96
32875;BME280;40468;42.128;24.750;2024-01-15T07:15:37;99191.06;;;-1.50;71.96
32875;BME280;40468;42.128;24.750;2024-01-15T07:17:10;99188.50;;;-1.47;71.98
32875;BME280;40468;42.128;24.750;2024-01-15T07:18:40;99189.28;;;-1.42;72.09
32875;BME280;40468;42.128;24.750;2024-01-15T07:20:12;99191.84;;;-1.36;72.10
32875;BME280;40468;42.128;24.750;2024-01-15T07:21:43;99191.78;;;-1.31;71.68
32875;BME280;40468;42.128;24.750;2024-01-15T07:23:15;99190.91;;;-1.27;71.50
32875;BME280;40468;42.128;24.750;2024-01-15T07:24:46;99187.47;;;-1.23;71.38
32875;BME280;40468;42.128;24.750;2024-01-15T07:26:18;99186.63;;;-1.21;71.32
32875;BME280;40468;42.128;24.750;2024-01-15T07:27:49;99189.13;;;-1.15;71.12
32875;BME280;40468;42.128;24.750;2024-01-15T07:29:22;99189.09;;;-1.11;70.99
32875;BME280;40468;42.128;24.750;2024-01-15T07:30:53;99194.19;;;-1.08;70.94
32875;BME280;40468;42.128;24.750;2024-01-15T07:32:25;99200.09;;;-1.05;70.62
32875;BME280;40468;42.128;24.750;2024-01-15T07:33:56;99196.69;;;-1.02;70.57
32875;BME280;40468;42.128;24.750;2024-01-15T07:35:28;99188.09;;;-0.95;70.65
32875;BME280;40468;42.128;24.750;2024-01-15T07:36:59;99192.25;;;-0.82;70.49
32875;BME280;40468;42.128;24.750;2024-01-15T07:38:32;99176.84;;;-0.76;70.50
32875;BME280;40468;42.128;24.750;2024-01-15T07:40:03;99181.00;;;-0.65;70.11
32875;BME280;40468;42.128;24.750;2024-01-15T07:41:37;99191.84;;;-0.42;69.84
32875;BME280;40468;42.128;24.750;2024-01-15T07:43:07;99201.06;;;-0.26;69.56
32875;BME280;40468;42.128;24.750;2024-01-15T07:44:41;99207.72;;;-0.11;69.07
32875;BME280;40468;42.128;24.750;2024-01-15T07:46:13;99204.97;;;0.06;68.94
32875;BME280;40468;42.128;24.750;2024-01-15T07:47:45;99206.50;;;0.19;68.41
32875;BME280;40468;42.128;24.750;2024-01-15T07:49:16;99192.81;;;0.20;67.79
32875;BME280;40468;42.128;24.750;2024-01-15T07:50:48;99201.31;;;0.27;67.61
32875;BME280;40468;42.128;24.750;2024-01-15T07:52:19;99209.78;;;0.29;67.29
32875;BME280;40468;42.128;24.750;2024-01-15T07:53:54;99197.94;;;0.22;66.82
32875;BME280;40468;42.128;24.750;2024-01-15T07:55:25;99201.31;;;0.26;66.84
32875;BME280;40468;42.128;24.750;2024-01-15T07:56:58;99203.00;;;0.27;66.75
32875;BME280;40468;42.128;24.750;2024-01-15T07:58:29;99196.22;;;0.22;66.71
32875;BME280;40468;42.128;24.750;2024-01-15T08:00:03;99207.25;;;0.28;66.56